Time;durP1;ratioP1;P1;durP2;ratioP2;P2;SDS_P1;SDS_P2;PMS_P1;PMS_P2;Temp;Humidity;BMP_temperature;BMP_pressure;BME280_temperature;BME280_humidity;BME280_pressure;Samples;Min_cycle;Max_cycle;Signal;HPM_P1;HPM_P2
2022/04/30 00:00:30;;;;;;;1.05;0.65;;;;;;;;;;2078894;28;20022;-83
2022/04/30 00:01:50;;;;;;;2.97;0.70;;;;;;;;;;2072292;28;20106;-82
2022/04/30 00:03:12;;;;;;;2.25;0.77;;;;;;;;;;2070704;28;20034;-81
2022/04/30 00:04:31;;;;;;;1.35;0.85;;;;;;;;;;2078326;28;20025;-81
2022/04/30 00:05:56;;;;;;;1.45;0.70;;;;;;;;;;2073406;28;20025;-82
2022/04/30 00:07:17;;;;;;;1.13;0.80;;;;;;;;;;2076972;28;20074;-81
2022/04/30 00:08:35;;;;;;;2.45;0.65;;;;;;;;;;2074058;28;20026;-81
2022/04/30 00:09:55;;;;;;;3.10;0.98;;;;;;;;;;2069590;28;20117;-81
2022/04/30 00:11:14;;;;;;;1.25;0.77;;;;;;;;;;2070043;28;20038;-81
2022/04/30 00:12:33;;;;;;;1.00;0.63;;;;;;;;;;2068246;28;20026;-81
2022/04/30 00:13:55;;;;;;;1.52;0.73;;;;;;;;;;2073582;28;20121;-81
2022/04/30 00:15:14;;;;;;;1.55;0.82;;;;;;;;;;2069430;28;20139;-83
2022/04/30 00:16:33;;;;;;;0.88;0.70;;;;;;;;;;2071161;28;20038;-81
2022/04/30 00:17:54;;;;;;;3.78;0.65;;;;;;;;;;2068642;28;20038;-81
2022/04/30 00:19:14;;;;;;;0.68;0.52;;;;;;;;;;2073309;28;20026;-81
2022/04/30 00:20:36;;;;;;;2.63;0.77;;;;;;;;;;2068870;28;20532;-81
2022/04/30 00:21:57;;;;;;;0.90;0.90;;;;;;;;;;2077452;28;20037;-81
2022/04/30 00:23:19;;;;;;;2.58;0.70;;;;;;;;;;2068556;28;20041;-82
2022/04/30 00:24:41;;;;;;;1.65;0.95;;;;;;;;;;2068162;28;20541;-82
2022/04/30 00:26:00;;;;;;;0.85;0.80;;;;;;;;;;2072925;28;20042;-81
2022/04/30 00:27:20;;;;;;;2.80;0.50;;;;;;;;;;2075864;28;21846;-81
2022/04/30 00:28:39;;;;;;;1.02;0.70;;;;;;;;;;2069593;28;20017;-82
2022/04/30 00:29:58;;;;;;;1.23;0.70;;;;;;;;;;2066347;28;20030;-84
2022/04/30 00:31:17;;;;;;;1.70;0.77;;;;;;;;;;2070823;28;20049;-82
2022/04/30 00:32:37;;;;;;;2.50;0.63;;;;;;;;;;2068786;28;20026;-82
2022/04/30 00:33:56;;;;;;;2.15;0.80;;;;;;;;;;2069602;28;20109;-81
2022/04/30 00:35:16;;;;;;;0.85;0.68;;;;;;;;;;2077320;28;20030;-82
2022/04/30 00:36:36;;;;;;;2.08;0.60;;;;;;;;;;2073645;28;20518;-82
2022/04/30 00:37:55;;;;;;;3.22;0.90;;;;;;;;;;2067727;28;20487;-82
2022/04/30 00:39:14;;;;;;;0.82;0.82;;;;;;;;;;2069443;28;20034;-82
2022/04/30 00:40:38;;;;;;;1.95;1.00;;;;;;;;;;2067508;28;20034;-82
2022/04/30 00:41:58;;;;;;;1.55;0.60;;;;;;;;;;2070587;28;20488;-83
2022/04/30 00:43:18;;;;;;;1.00;0.63;;;;;;;;;;2069426;28;20499;-82
2022/04/30 00:44:36;;;;;;;0.95;0.80;;;;;;;;;;2071253;28;20026;-81
2022/04/30 00:45:55;;;;;;;0.98;0.57;;;;;;;;;;2069090;28;20475;-82
2022/04/30 00:47:15;;;;;;;1.05;0.60;;;;;;;;;;2070886;28;20061;-83
2022/04/30 00:48:36;;;;;;;1.58;1.05;;;;;;;;;;2074147;28;20034;-81
2022/04/30 00:49:55;;;;;;;2.70;0.90;;;;;;;;;;2076318;28;20029;-82
2022/04/30 00:51:15;;;;;;;2.10;0.80;;;;;;;;;;2073735;28;20034;-82
2022/04/30 00:52:35;;;;;;;2.85;0.65;;;;;;;;;;2075638;28;20021;-81
2022/04/30 00:53:55;;;;;;;1.83;0.77;;;;;;;;;;2073580;28;20028;-83
2022/04/30 00:55:19;;;;;;;4.65;1.23;;;;;;;;;;2079044;28;20025;-82
2022/04/30 00:56:43;;;;;;;1.88;0.60;;;;;;;;;;2074552;28;20010;-81
2022/04/30 00:58:04;;;;;;;3.75;0.93;;;;;;;;;;2077793;28;20038;-81
2022/04/30 00:59:23;;;;;;;2.05;0.88;;;;;;;;;;2072299;28;20128;-82
2022/04/30 01:00:44;;;;;;;1.52;0.80;;;;;;;;;;2070796;28;20018;-83
2022/04/30 01:02:03;;;;;;;0.98;0.73;;;;;;;;;;2078413;28;20487;-83
2022/04/30 01:03:22;;;;;;;1.30;0.80;;;;;;;;;;2074040;28;20030;-82
2022/04/30 01:04:41;;;;;;;1.75;1.23;;;;;;;;;;2074522;28;20033;-81
2022/04/30 01:06:01;;;;;;;1.42;0.82;;;;;;;;;;2069506;28;20042;-81
2022/04/30 01:07:20;;;;;;;1.00;0.90;;;;;;;;;;2071092;28;20022;-82
2022/04/30 01:08:40;;;;;;;5.18;0.82;;;;;;;;;;2073794;28;20022;-81
2022/04/30 01:09:59;;;;;;;2.50;0.70;;;;;;;;;;2072199;28;20022;-81
2022/04/30 01:11:22;;;;;;;6.72;1.13;;;;;;;;;;2073737;28;20025;-81
2022/04/30 01:12:41;;;;;;;1.60;0.90;;;;;;;;;;2070069;28;20062;-82
2022/04/30 01:14:00;;;;;;;3.05;0.70;;;;;;;;;;2070831;28;20108;-81
2022/04/30 01:15:19;;;;;;;0.98;0.75;;;;;;;;;;2068762;28;20037;-81
2022/04/30 01:16:38;;;;;;;1.20;0.63;;;;;;;;;;2069882;28;20484;-82
2022/04/30 01:17:59;;;;;;;2.60;0.65;;;;;;;;;;2073505;28;20034;-81
2022/04/30 01:19:20;;;;;;;3.75;0.75;;;;;;;;;;2080752;28;20607;-81
2022/04/30 01:20:41;;;;;;;1.55;0.80;;;;;;;;;;2068856;28;20511;-82
2022/04/30 01:22:01;;;;;;;2.72;0.88;;;;;;;;;;2069375;28;20491;-81
2022/04/30 01:23:21;;;;;;;1.88;0.60;;;;;;;;;;2073597;28;20419;-81
2022/04/30 01:24:40;;;;;;;1.23;0.70;;;;;;;;;;2071436;28;20026;-82
2022/04/30 01:26:01;;;;;;;3.80;0.60;;;;;;;;;;2069762;28;20496;-82
2022/04/30 01:27:22;;;;;;;0.88;0.68;;;;;;;;;;2067294;28;20027;-81
2022/04/30 01:28:43;;;;;;;0.80;0.80;;;;;;;;;;2068441;28;20540;-81
2022/04/30 01:30:03;;;;;;;4.40;0.90;;;;;;;;;;2074441;28;20050;-81
2022/04/30 01:37:53;;;;;;;4.22;0.80;;;;;;;;;;2082045;28;20069;-81
2022/04/30 01:39:13;;;;;;;1.50;0.80;;;;;;;;;;2073366;28;20030;-81
2022/04/30 01:40:32;;;;;;;1.15;0.80;;;;;;;;;;2068834;28;20030;-81
2022/04/30 01:41:52;;;;;;;1.40;0.80;;;;;;;;;;2074554;28;20022;-83
2022/04/30 01:43:11;;;;;;;1.02;0.93;;;;;;;;;;2067986;28;20054;-81
2022/04/30 01:44:30;;;;;;;4.57;1.05;;;;;;;;;;2069931;28;20018;-81
2022/04/30 01:45:50;;;;;;;2.03;0.75;;;;;;;;;;2072798;28;20034;-81
2022/04/30 01:47:09;;;;;;;3.13;1.00;;;;;;;;;;2074834;28;20026;-81
2022/04/30 01:48:28;;;;;;;2.75;0.73;;;;;;;;;;2070363;28;20034;-81
2022/04/30 01:49:47;;;;;;;1.60;1.00;;;;;;;;;;2071319;28;20022;-80
2022/04/30 01:51:06;;;;;;;2.08;0.80;;;;;;;;;;2074192;28;20057;-81
2022/04/30 01:52:25;;;;;;;0.73;0.68;;;;;;;;;;2077827;28;20026;-80
2022/04/30 01:53:44;;;;;;;2.75;0.90;;;;;;;;;;2072538;28;20494;-81
2022/04/30 01:55:03;;;;;;;2.75;0.68;;;;;;;;;;2070273;28;20034;-80
2022/04/30 01:56:24;;;;;;;1.30;0.65;;;;;;;;;;2070661;28;20117;-80
2022/04/30 01:57:43;;;;;;;2.53;1.05;;;;;;;;;;2071864;28;20415;-80
2022/04/30 01:59:02;;;;;;;1.17;0.93;;;;;;;;;;2069846;28;20047;-80
2022/04/30 02:00:22;;;;;;;1.17;0.70;;;;;;;;;;2074606;28;20109;-81
2022/04/30 02:01:43;;;;;;;2.13;0.70;;;;;;;;;;2078479;28;20068;-81
2022/04/30 02:03:11;;;;;;;2.08;1.17;;;;;;;;;;2067028;28;20030;-80
2022/04/30 02:04:30;;;;;;;2.35;0.73;;;;;;;;;;2077917;28;20033;-81
2022/04/30 02:05:50;;;;;;;2.50;1.23;;;;;;;;;;2072922;28;20112;-81
2022/04/30 02:07:10;;;;;;;2.47;0.93;;;;;;;;;;2073128;28;20026;-80
2022/04/30 02:08:32;;;;;;;1.05;0.70;;;;;;;;;;2073920;28;20148;-82
2022/04/30 02:09:51;;;;;;;2.60;0.90;;;;;;;;;;2071171;28;20037;-80
2022/04/30 02:11:11;;;;;;;2.30;0.82;;;;;;;;;;2070002;28;20034;-80
2022/04/30 02:12:31;;;;;;;1.17;0.80;;;;;;;;;;2074926;28;20491;-80
2022/04/30 02:13:55;;;;;;;1.85;0.73;;;;;;;;;;2077410;28;20030;-81
2022/04/30 02:15:14;;;;;;;2.78;0.98;;;;;;;;;;2069962;28;20086;-82
2022/04/30 02:16:34;;;;;;;2.25;0.90;;;;;;;;;;2067742;28;20033;-82
2022/04/30 02:17:54;;;;;;;2.65;0.80;;;;;;;;;;2071205;28;20023;-81
2022/04/30 02:19:14;;;;;;;3.03;1.00;;;;;;;;;;2078142;28;20511;-82
2022/04/30 02:20:38;;;;;;;2.60;0.70;;;;;;;;;;2075229;28;20026;-80
2022/04/30 02:21:58;;;;;;;2.00;0.98;;;;;;;;;;2080120;28;20026;-80
2022/04/30 02:23:17;;;;;;;3.75;0.80;;;;;;;;;;2075637;28;20030;-80
2022/04/30 02:24:36;;;;;;;2.08;0.90;;;;;;;;;;2072965;28;20065;-80
2022/04/30 02:25:55;;;;;;;0.80;0.80;;;;;;;;;;2073761;28;20026;-81
2022/04/30 02:27:14;;;;;;;3.17;0.75;;;;;;;;;;2069491;28;20034;-81
2022/04/30 02:28:36;;;;;;;1.63;0.77;;;;;;;;;;2071304;28;20061;-80
2022/04/30 02:29:55;;;;;;;3.70;1.10;;;;;;;;;;2068492;28;20030;-81
2022/04/30 02:31:22;;;;;;;0.63;0.63;;;;;;;;;;2069968;28;20037;-81
2022/04/30 02:32:48;;;;;;;1.67;0.93;;;;;;;;;;2076130;28;20033;-80
2022/04/30 02:34:07;;;;;;;3.30;1.08;;;;;;;;;;2080022;28;20025;-82
2022/04/30 02:35:28;;;;;;;1.60;1.30;;;;;;;;;;2072825;28;20030;-82
2022/04/30 02:36:48;;;;;;;1.40;1.13;;;;;;;;;;2070584;28;20097;-81
2022/04/30 02:38:10;;;;;;;4.20;1.63;;;;;;;;;;2071984;28;20034;-81
2022/04/30 02:39:30;;;;;;;1.92;1.08;;;;;;;;;;2068421;28;20030;-81
2022/04/30 02:40:49;;;;;;;3.50;1.40;;;;;;;;;;2078695;28;20021;-81
2022/04/30 02:42:08;;;;;;;3.50;1.00;;;;;;;;;;2080291;28;20030;-81
2022/04/30 02:43:28;;;;;;;2.58;0.88;;;;;;;;;;2082882;28;20041;-81
2022/04/30 02:44:49;;;;;;;1.73;0.88;;;;;;;;;;2072585;28;20026;-81
2022/04/30 02:46:12;;;;;;;1.65;1.05;;;;;;;;;;2071545;28;20037;-80
2022/04/30 02:47:32;;;;;;;4.00;0.80;;;;;;;;;;2070020;28;20030;-82
2022/04/30 02:48:51;;;;;;;1.50;1.05;;;;;;;;;;2069307;28;20507;-81
2022/04/30 02:50:14;;;;;;;3.63;1.42;;;;;;;;;;2068580;28;20419;-81
2022/04/30 02:51:33;;;;;;;2.40;1.13;;;;;;;;;;2070612;28;20056;-81
2022/04/30 02:52:54;;;;;;;6.07;0.95;;;;;;;;;;2069851;28;20034;-81
2022/04/30 02:54:13;;;;;;;4.53;1.63;;;;;;;;;;2073139;28;20030;-81
2022/04/30 02:55:32;;;;;;;2.22;1.00;;;;;;;;;;2078057;28;20037;-81
2022/04/30 02:56:52;;;;;;;1.50;0.80;;;;;;;;;;2073001;28;20468;-81
2022/04/30 02:59:58;;;;;;;3.17;1.15;;;;;;;;;;2079813;28;20033;-81
2022/04/30 03:01:20;;;;;;;2.50;1.27;;;;;;;;;;2073375;28;20041;-81
2022/04/30 03:02:40;;;;;;;2.45;1.00;;;;;;;;;;2069826;28;20029;-81
2022/04/30 03:04:00;;;;;;;2.00;1.30;;;;;;;;;;2070421;28;20435;-81
2022/04/30 03:05:19;;;;;;;1.63;0.90;;;;;;;;;;2069386;28;20041;-81
2022/04/30 03:06:38;;;;;;;4.55;1.15;;;;;;;;;;2079817;28;20017;-80
2022/04/30 03:07:58;;;;;;;1.50;0.98;;;;;;;;;;2071733;28;20104;-81
2022/04/30 03:09:18;;;;;;;3.83;0.95;;;;;;;;;;2070470;28;20054;-80
2022/04/30 03:10:37;;;;;;;1.27;1.00;;;;;;;;;;2069228;28;20033;-81
2022/04/30 03:11:58;;;;;;;3.38;1.30;;;;;;;;;;2077755;28;20499;-81
2022/04/30 03:13:18;;;;;;;2.92;0.90;;;;;;;;;;2071280;28;20034;-80
2022/04/30 03:14:37;;;;;;;3.22;0.90;;;;;;;;;;2073573;28;20030;-80
2022/04/30 03:21:41;;;;;;;2.22;1.10;;;;;;;;;;2070768;28;20112;-81
2022/04/30 03:22:32;;;;;;;2.85;0.90;;;;;;;;;;2080925;28;20120;-81
2022/04/30 03:23:51;;;;;;;1.13;0.82;;;;;;;;;;2073011;28;20085;-81
2022/04/30 03:25:10;;;;;;;1.92;0.95;;;;;;;;;;2071559;28;20034;-81
2022/04/30 03:26:29;;;;;;;2.50;0.90;;;;;;;;;;2072166;28;20519;-81
2022/04/30 03:27:48;;;;;;;2.10;1.30;;;;;;;;;;2069684;28;20512;-81
2022/04/30 03:29:07;;;;;;;1.10;0.73;;;;;;;;;;2070198;28;20030;-81
2022/04/30 03:30:27;;;;;;;2.17;0.90;;;;;;;;;;2066468;28;20065;-82
2022/04/30 03:31:47;;;;;;;2.05;1.20;;;;;;;;;;2073692;28;20026;-80
2022/04/30 03:33:09;;;;;;;1.60;1.00;;;;;;;;;;2082008;28;20021;-81
2022/04/30 03:34:32;;;;;;;2.50;1.20;;;;;;;;;;2075681;28;20022;-81
2022/04/30 03:35:52;;;;;;;0.85;0.82;;;;;;;;;;2073676;28;20091;-79
2022/04/30 03:37:11;;;;;;;1.48;1.00;;;;;;;;;;2089628;23;20046;-69
2022/04/30 03:38:30;;;;;;;8.15;1.20;;;;;;;;;;2081179;28;20034;-69
2022/04/30 03:39:49;;;;;;;1.40;1.10;;;;;;;;;;2076033;28;20484;-69
2022/04/30 03:41:08;;;;;;;1.90;0.95;;;;;;;;;;2089554;28;20115;-70
2022/04/30 03:42:27;;;;;;;3.70;1.00;;;;;;;;;;2085125;28;20135;-69
2022/04/30 03:43:46;;;;;;;1.95;1.20;;;;;;;;;;2081855;28;20025;-69
2022/04/30 03:45:05;;;;;;;2.00;1.25;;;;;;;;;;2082992;28;20021;-69
2022/04/30 03:46:25;;;;;;;1.30;1.20;;;;;;;;;;2090908;28;20060;-70
2022/04/30 03:47:43;;;;;;;1.20;1.10;;;;;;;;;;2089360;28;20098;-70
2022/04/30 03:49:03;;;;;;;3.03;1.00;;;;;;;;;;2089010;28;20052;-70
2022/04/30 03:50:22;;;;;;;3.60;0.98;;;;;;;;;;2089772;28;20394;-68
2022/04/30 03:51:41;;;;;;;1.88;1.20;;;;;;;;;;2080139;28;20025;-69
2022/04/30 03:52:59;;;;;;;2.20;1.15;;;;;;;;;;2076933;28;20394;-69
2022/04/30 03:54:18;;;;;;;1.42;0.93;;;;;;;;;;2087871;28;20036;-69
2022/04/30 03:55:37;;;;;;;1.40;0.95;;;;;;;;;;2087254;28;20053;-69
2022/04/30 03:56:56;;;;;;;1.52;1.20;;;;;;;;;;2081353;28;20033;-69
2022/04/30 03:58:15;;;;;;;3.47;1.15;;;;;;;;;;2086310;28;20024;-69
2022/04/30 03:59:34;;;;;;;1.67;1.00;;;;;;;;;;2088850;28;20064;-69
2022/04/30 04:00:54;;;;;;;2.80;0.80;;;;;;;;;;2087724;28;20025;-69
2022/04/30 04:02:13;;;;;;;2.88;1.15;;;;;;;;;;2088418;28;20029;-69
2022/04/30 04:03:32;;;;;;;1.10;0.90;;;;;;;;;;2089986;28;20448;-70
2022/04/30 04:04:52;;;;;;;5.53;1.23;;;;;;;;;;2088916;28;20061;-71
2022/04/30 04:06:13;;;;;;;2.58;1.13;;;;;;;;;;2088102;28;20045;-69
2022/04/30 04:07:32;;;;;;;3.67;1.33;;;;;;;;;;2087644;28;20022;-70
2022/04/30 04:08:52;;;;;;;4.50;1.48;;;;;;;;;;2081354;28;20120;-70
2022/04/30 04:10:12;;;;;;;3.47;1.10;;;;;;;;;;2088673;28;20016;-70
2022/04/30 04:11:31;;;;;;;5.15;1.30;;;;;;;;;;2089055;28;20025;-69
2022/04/30 04:12:50;;;;;;;2.20;1.17;;;;;;;;;;2081475;28;20025;-69
2022/04/30 04:17:41;;;;;;;2.15;0.90;;;;;;;;;;2092056;28;20029;-70
2022/04/30 04:19:00;;;;;;;3.15;1.10;;;;;;;;;;2089531;28;20439;-70
2022/04/30 04:20:19;;;;;;;5.13;1.58;;;;;;;;;;2082671;28;20033;-70
2022/04/30 04:21:38;;;;;;;2.60;1.27;;;;;;;;;;2084427;28;20025;-70
2022/04/30 04:22:56;;;;;;;2.25;1.25;;;;;;;;;;2081580;28;20025;-70
2022/04/30 04:26:00;;;;;;;6.18;1.00;;;;;;;;;;2090457;28;20029;-70
2022/04/30 04:27:19;;;;;;;1.35;1.10;;;;;;;;;;2090147;28;20049;-70
2022/04/30 04:28:38;;;;;;;1.10;1.00;;;;;;;;;;2091333;28;20036;-69
2022/04/30 04:29:57;;;;;;;3.72;1.20;;;;;;;;;;2088505;28;20538;-70
2022/04/30 04:31:22;;;;;;;1.20;1.10;;;;;;;;;;2081645;28;20033;-70
2022/04/30 04:32:41;;;;;;;1.67;0.90;;;;;;;;;;2077749;28;20029;-70
2022/04/30 04:34:00;;;;;;;1.88;1.10;;;;;;;;;;2084369;28;20483;-70
2022/04/30 04:35:19;;;;;;;2.05;1.02;;;;;;;;;;2088299;28;20033;-70
2022/04/30 04:36:38;;;;;;;1.52;1.15;;;;;;;;;;2090416;28;20037;-70
2022/04/30 04:37:57;;;;;;;2.45;1.10;;;;;;;;;;2091305;28;20037;-70
2022/04/30 04:39:16;;;;;;;6.50;0.90;;;;;;;;;;2081926;28;20029;-70
2022/04/30 04:40:35;;;;;;;2.15;1.13;;;;;;;;;;2086674;28;20033;-70
2022/04/30 04:41:54;;;;;;;1.92;1.00;;;;;;;;;;2083217;28;20025;-71
2022/04/30 04:43:13;;;;;;;1.42;0.98;;;;;;;;;;2086422;28;20483;-72
2022/04/30 04:44:32;;;;;;;3.05;1.02;;;;;;;;;;2081670;28;20033;-71
2022/04/30 04:45:50;;;;;;;3.53;0.80;;;;;;;;;;2085509;28;20523;-71
2022/04/30 04:47:09;;;;;;;1.10;1.00;;;;;;;;;;2088086;28;20483;-71
2022/04/30 04:48:31;;;;;;;2.80;0.75;;;;;;;;;;2091480;28;20033;-71
2022/04/30 04:49:51;;;;;;;1.08;0.82;;;;;;;;;;2090976;28;20033;-71
2022/04/30 04:51:11;;;;;;;2.20;1.23;;;;;;;;;;2090636;28;20506;-71
2022/04/30 04:52:30;;;;;;;0.75;0.63;;;;;;;;;;2088430;28;20028;-71
2022/04/30 04:53:49;;;;;;;1.42;0.95;;;;;;;;;;2090286;28;20037;-71
2022/04/30 04:55:08;;;;;;;2.63;0.88;;;;;;;;;;2086903;28;20107;-71
2022/04/30 04:56:28;;;;;;;6.18;0.95;;;;;;;;;;2090260;28;20033;-71
2022/04/30 04:57:47;;;;;;;2.80;0.90;;;;;;;;;;2091228;28;20092;-70
2022/04/30 04:59:08;;;;;;;1.65;0.90;;;;;;;;;;2081838;28;20021;-71
2022/04/30 05:00:27;;;;;;;3.47;0.80;;;;;;;;;;2086346;28;20026;-70
2022/04/30 05:01:49;;;;;;;3.13;0.95;;;;;;;;;;2089967;28;20045;-71
2022/04/30 05:03:08;;;;;;;1.70;0.73;;;;;;;;;;2091256;28;20391;-71
2022/04/30 05:04:27;;;;;;;1.77;1.00;;;;;;;;;;2089105;28;20033;-71
2022/04/30 05:05:46;;;;;;;5.00;0.73;;;;;;;;;;2090110;28;20028;-69
2022/04/30 05:07:05;;;;;;;1.05;0.73;;;;;;;;;;2089434;28;20033;-69
2022/04/30 05:08:24;;;;;;;2.83;1.10;;;;;;;;;;2082135;28;20085;-70
2022/04/30 05:09:43;;;;;;;1.88;0.60;;;;;;;;;;2085778;28;20107;-70
2022/04/30 05:11:02;;;;;;;2.60;0.63;;;;;;;;;;2090602;28;20076;-70
2022/04/30 05:12:21;;;;;;;1.48;0.80;;;;;;;;;;2080360;28;20399;-69
2022/04/30 05:13:39;;;;;;;1.83;1.08;;;;;;;;;;2086599;28;20037;-70
2022/04/30 05:14:58;;;;;;;7.00;0.85;;;;;;;;;;2090319;28;20025;-69
2022/04/30 05:16:17;;;;;;;1.08;0.82;;;;;;;;;;2081510;28;20110;-69
2022/04/30 05:17:36;;;;;;;1.20;0.75;;;;;;;;;;2085765;28;20032;-69
2022/04/30 05:18:55;;;;;;;0.82;0.80;;;;;;;;;;2090806;28;20061;-70
2022/04/30 05:20:14;;;;;;;0.95;0.68;;;;;;;;;;2087288;28;20036;-69
2022/04/30 05:21:33;;;;;;;1.33;0.60;;;;;;;;;;2090960;28;20037;-69
2022/04/30 05:22:52;;;;;;;1.63;0.90;;;;;;;;;;2090771;28;20029;-69
2022/04/30 05:24:11;;;;;;;3.45;0.68;;;;;;;;;;2089363;28;20033;-68
2022/04/30 05:25:30;;;;;;;1.58;0.88;;;;;;;;;;2088667;28;20045;-70
2022/04/30 05:26:50;;;;;;;0.70;0.50;;;;;;;;;;2090429;28;20104;-70
2022/04/30 05:28:09;;;;;;;2.88;0.75;;;;;;;;;;2089110;28;20125;-70
2022/04/30 05:29:28;;;;;;;3.60;1.05;;;;;;;;;;2088910;28;20060;-70
2022/04/30 05:30:47;;;;;;;1.13;0.47;;;;;;;;;;2089646;28;20491;-69
2022/04/30 05:32:06;;;;;;;1.42;0.73;;;;;;;;;;2089673;28;20037;-70
2022/04/30 05:33:25;;;;;;;1.30;0.70;;;;;;;;;;2090665;28;20426;-69
2022/04/30 05:34:44;;;;;;;3.42;0.77;;;;;;;;;;2088920;28;20021;-69
2022/04/30 05:36:03;;;;;;;3.78;0.60;;;;;;;;;;2090405;28;20033;-70
2022/04/30 05:37:22;;;;;;;3.10;0.60;;;;;;;;;;2087849;28;20115;-70
2022/04/30 05:38:41;;;;;;;0.68;0.57;;;;;;;;;;2079325;28;20033;-68
2022/04/30 05:40:01;;;;;;;2.30;0.73;;;;;;;;;;2086526;28;20021;-70
2022/04/30 05:41:19;;;;;;;3.00;0.88;;;;;;;;;;2081296;28;20037;-70
2022/04/30 05:42:38;;;;;;;1.60;1.00;;;;;;;;;;2084432;28;20029;-67
2022/04/30 05:43:57;;;;;;;4.93;0.80;;;;;;;;;;2088482;28;20454;-69
2022/04/30 05:45:16;;;;;;;0.90;0.70;;;;;;;;;;2090272;28;20029;-68
2022/04/30 05:46:35;;;;;;;2.00;0.52;;;;;;;;;;2082079;28;20026;-72
2022/04/30 05:47:54;;;;;;;1.35;0.60;;;;;;;;;;2078027;28;20014;-69
2022/04/30 05:49:13;;;;;;;0.85;0.45;;;;;;;;;;2076159;28;20030;-69
2022/04/30 05:50:31;;;;;;;0.52;0.50;;;;;;;;;;2078178;28;20026;-70
2022/04/30 05:51:51;;;;;;;2.33;0.57;;;;;;;;;;2085987;28;20025;-68
2022/04/30 05:53:10;;;;;;;3.20;0.63;;;;;;;;;;2080595;28;20030;-69
2022/04/30 05:54:29;;;;;;;1.35;0.60;;;;;;;;;;2086496;28;20032;-69
2022/04/30 05:55:49;;;;;;;0.70;0.70;;;;;;;;;;2089918;28;20060;-69
2022/04/30 05:57:08;;;;;;;1.45;0.70;;;;;;;;;;2081634;28;20041;-69
2022/04/30 05:58:27;;;;;;;0.88;0.80;;;;;;;;;;2086331;28;20026;-69
2022/04/30 05:59:46;;;;;;;2.42;0.60;;;;;;;;;;2089975;28;20028;-67
2022/04/30 06:01:05;;;;;;;1.52;0.73;;;;;;;;;;2080152;28;20041;-70
2022/04/30 06:02:24;;;;;;;1.60;0.90;;;;;;;;;;2086301;28;20146;-70
2022/04/30 06:03:43;;;;;;;3.60;0.70;;;;;;;;;;2088175;28;20036;-68
2022/04/30 06:05:03;;;;;;;1.92;0.65;;;;;;;;;;2087992;28;20033;-70
2022/04/30 06:06:21;;;;;;;2.10;0.45;;;;;;;;;;2089860;28;20029;-69
2022/04/30 06:07:40;;;;;;;1.20;0.52;;;;;;;;;;2088540;28;20394;-69
2022/04/30 06:08:59;;;;;;;0.88;0.50;;;;;;;;;;2090071;28;20403;-69
2022/04/30 06:10:18;;;;;;;1.58;0.60;;;;;;;;;;2089493;28;20033;-69
2022/04/30 06:11:37;;;;;;;1.13;0.52;;;;;;;;;;2089268;28;20475;-70
2022/04/30 06:12:57;;;;;;;0.98;0.63;;;;;;;;;;2089181;28;20057;-69
2022/04/30 06:14:16;;;;;;;1.08;0.65;;;;;;;;;;2087081;28;20033;-70
2022/04/30 06:15:35;;;;;;;1.65;0.70;;;;;;;;;;2089563;28;20709;-69
2022/04/30 06:16:55;;;;;;;3.67;0.63;;;;;;;;;;2090212;28;20040;-70
2022/04/30 06:18:17;;;;;;;2.05;0.50;;;;;;;;;;2082958;28;20029;-70
2022/04/30 06:19:36;;;;;;;1.98;0.77;;;;;;;;;;2076871;28;20467;-69
2022/04/30 06:20:55;;;;;;;3.28;0.70;;;;;;;;;;2085204;28;20479;-70
2022/04/30 06:22:14;;;;;;;1.17;0.70;;;;;;;;;;2089833;28;20033;-69
2022/04/30 06:23:33;;;;;;;4.32;0.98;;;;;;;;;;2090261;28;20025;-70
2022/04/30 06:24:51;;;;;;;1.42;1.17;;;;;;;;;;2080573;28;20116;-70
2022/04/30 06:26:10;;;;;;;0.57;0.47;;;;;;;;;;2085624;28;20029;-70
2022/04/30 06:27:29;;;;;;;1.45;0.65;;;;;;;;;;2089331;28;20057;-71
2022/04/30 06:28:48;;;;;;;1.58;0.57;;;;;;;;;;2088873;28;20049;-69
2022/04/30 06:30:07;;;;;;;1.15;0.60;;;;;;;;;;2090027;28;20021;-69
2022/04/30 06:31:26;;;;;;;1.13;0.57;;;;;;;;;;2081273;28;20378;-70
2022/04/30 06:32:45;;;;;;;2.28;0.80;;;;;;;;;;2089135;28;20025;-70
2022/04/30 06:34:04;;;;;;;0.90;0.68;;;;;;;;;;2089454;28;20029;-69
2022/04/30 06:35:23;;;;;;;1.27;0.70;;;;;;;;;;2087096;28;20100;-70
2022/04/30 06:36:42;;;;;;;1.90;0.73;;;;;;;;;;2087551;28;20491;-70
2022/04/30 06:38:01;;;;;;;1.27;0.65;;;;;;;;;;2089333;28;20049;-70
2022/04/30 06:39:20;;;;;;;1.15;0.70;;;;;;;;;;2088349;28;20028;-71
2022/04/30 06:40:39;;;;;;;1.30;0.90;;;;;;;;;;2086589;28;20029;-69
2022/04/30 06:41:58;;;;;;;1.10;0.77;;;;;;;;;;2079548;28;20515;-70
2022/04/30 06:43:17;;;;;;;1.35;0.65;;;;;;;;;;2086610;28;20112;-69
2022/04/30 06:44:36;;;;;;;1.42;0.75;;;;;;;;;;2088764;28;21833;-69
2022/04/30 06:45:54;;;;;;;4.10;0.80;;;;;;;;;;2088034;28;20025;-71
2022/04/30 06:47:14;;;;;;;0.82;0.70;;;;;;;;;;2089784;28;20029;-69
2022/04/30 06:48:33;;;;;;;0.95;0.63;;;;;;;;;;2079156;28;20038;-69
2022/04/30 06:49:53;;;;;;;1.17;0.73;;;;;;;;;;2086063;28;20048;-69
2022/04/30 06:51:12;;;;;;;1.80;1.20;;;;;;;;;;2088078;28;20029;-70
2022/04/30 06:52:31;;;;;;;1.40;0.60;;;;;;;;;;2077894;28;20018;-70
2022/04/30 06:57:10;;;;;;;1.90;0.70;;;;;;;;;;2088609;28;20021;-70
2022/04/30 06:58:41;;;;;;;3.60;0.77;;;;;;;;;;2087710;28;20024;-70
2022/04/30 07:00:39;;;;;;;2.22;0.80;;;;;;;;;;2080475;28;20451;-70
2022/04/30 07:01:44;;;;;;;1.48;0.70;;;;;;;;;;2088868;28;20017;-70
2022/04/30 07:03:08;;;;;;;2.78;0.70;;;;;;;;;;2089625;28;20391;-70
2022/04/30 07:04:28;;;;;;;0.80;0.63;;;;;;;;;;2089066;28;20440;-70
2022/04/30 07:05:47;;;;;;;1.90;0.57;;;;;;;;;;2087266;28;20037;-71
2022/04/30 07:07:06;;;;;;;2.17;0.77;;;;;;;;;;2089561;28;20021;-70
2022/04/30 07:08:25;;;;;;;0.93;0.60;;;;;;;;;;2086242;28;20033;-70
2022/04/30 07:09:45;;;;;;;3.53;1.25;;;;;;;;;;2089163;28;20033;-70
2022/04/30 07:11:04;;;;;;;2.15;0.45;;;;;;;;;;2088974;28;20104;-71
2022/04/30 07:12:23;;;;;;;3.10;0.60;;;;;;;;;;2088820;28;20040;-70
2022/04/30 07:13:43;;;;;;;3.30;1.08;;;;;;;;;;2087673;28;20021;-68
2022/04/30 07:15:02;;;;;;;0.70;0.55;;;;;;;;;;2088092;28;20029;-70
2022/04/30 07:16:21;;;;;;;3.20;0.60;;;;;;;;;;2089235;28;20029;-70
2022/04/30 07:17:40;;;;;;;0.93;0.57;;;;;;;;;;2080797;28;20414;-71
2022/04/30 07:19:00;;;;;;;4.63;0.63;;;;;;;;;;2085877;28;20037;-70
2022/04/30 07:20:19;;;;;;;2.38;0.70;;;;;;;;;;2089431;28;20036;-70
2022/04/30 07:21:38;;;;;;;1.42;0.63;;;;;;;;;;2088916;28;20440;-70
2022/04/30 07:22:57;;;;;;;2.17;0.60;;;;;;;;;;2090067;28;20041;-70
2022/04/30 07:24:16;;;;;;;2.08;0.70;;;;;;;;;;2080692;28;20096;-70
2022/04/30 07:25:35;;;;;;;1.60;0.70;;;;;;;;;;2075712;28;20029;-70
2022/04/30 07:26:54;;;;;;;1.88;0.70;;;;;;;;;;2085569;28;20025;-70
2022/04/30 07:28:13;;;;;;;1.23;0.57;;;;;;;;;;2079531;28;20037;-70
2022/04/30 07:29:32;;;;;;;1.52;0.77;;;;;;;;;;2085244;28;20096;-70
2022/04/30 07:30:51;;;;;;;1.00;0.50;;;;;;;;;;2087674;28;20025;-70
2022/04/30 07:32:10;;;;;;;1.10;0.55;;;;;;;;;;2087624;28;20422;-70
2022/04/30 07:33:29;;;;;;;0.95;0.60;;;;;;;;;;2087778;28;20029;-70
2022/04/30 07:34:48;;;;;;;3.55;1.02;;;;;;;;;;2088174;28;20021;-70
2022/04/30 07:36:07;;;;;;;1.33;0.70;;;;;;;;;;2089185;28;20438;-70
2022/04/30 07:37:26;;;;;;;0.60;0.50;;;;;;;;;;2088078;28;20610;-70
2022/04/30 07:38:45;;;;;;;1.15;0.70;;;;;;;;;;2089251;28;20033;-70
2022/04/30 07:40:04;;;;;;;1.63;0.77;;;;;;;;;;2089361;28;20037;-69
2022/04/30 07:41:24;;;;;;;1.83;0.68;;;;;;;;;;2088615;28;20029;-70
2022/04/30 07:42:42;;;;;;;1.35;0.55;;;;;;;;;;2079943;28;20463;-70
2022/04/30 07:44:01;;;;;;;1.50;0.70;;;;;;;;;;2086364;28;20082;-70
2022/04/30 07:45:20;;;;;;;2.33;0.77;;;;;;;;;;2089805;28;20045;-69
2022/04/30 07:46:39;;;;;;;1.52;0.77;;;;;;;;;;2074759;28;20463;-70
2022/04/30 07:47:58;;;;;;;0.82;0.60;;;;;;;;;;2075329;28;20078;-70
2022/04/30 07:49:17;;;;;;;2.83;1.00;;;;;;;;;;2085838;28;20435;-70
2022/04/30 07:50:36;;;;;;;1.15;0.57;;;;;;;;;;2088891;28;20100;-70
2022/04/30 07:51:57;;;;;;;1.20;0.60;;;;;;;;;;2079645;28;20399;-70
2022/04/30 07:53:16;;;;;;;1.98;0.70;;;;;;;;;;2085130;28;20029;-70
2022/04/30 07:54:35;;;;;;;1.27;0.77;;;;;;;;;;2089149;28;20391;-69
2022/04/30 07:55:54;;;;;;;0.80;0.60;;;;;;;;;;2089403;28;20041;-69
2022/04/30 07:57:13;;;;;;;3.67;0.40;;;;;;;;;;2089448;28;20479;-70
2022/04/30 07:58:32;;;;;;;4.75;0.57;;;;;;;;;;2085907;28;20119;-69
2022/04/30 07:59:51;;;;;;;1.17;0.73;;;;;;;;;;2088719;28;20033;-69
2022/04/30 08:01:10;;;;;;;2.47;0.57;;;;;;;;;;2089380;28;20040;-69
2022/04/30 08:02:28;;;;;;;3.03;0.70;;;;;;;;;;2089381;28;20029;-70
2022/04/30 08:03:47;;;;;;;0.65;0.52;;;;;;;;;;2089398;28;20029;-69
2022/04/30 08:05:06;;;;;;;0.93;0.30;;;;;;;;;;2089421;28;20029;-69
2022/04/30 08:06:25;;;;;;;4.20;0.82;;;;;;;;;;2080596;28;20045;-69
2022/04/30 08:07:44;;;;;;;3.63;0.43;;;;;;;;;;2077638;28;20034;-70
2022/04/30 08:09:03;;;;;;;0.85;0.65;;;;;;;;;;2085778;28;20442;-70
2022/04/30 08:10:22;;;;;;;5.65;0.80;;;;;;;;;;2089207;28;20025;-70
2022/04/30 08:11:41;;;;;;;0.80;0.70;;;;;;;;;;2080737;28;20037;-69
2022/04/30 08:13:00;;;;;;;1.35;0.57;;;;;;;;;;2079051;28;20021;-70
2022/04/30 08:14:19;;;;;;;0.77;0.50;;;;;;;;;;2086237;28;20033;-69
2022/04/30 08:15:43;;;;;;;1.08;0.57;;;;;;;;;;2080378;28;20483;-69
2022/04/30 08:17:01;;;;;;;2.05;0.70;;;;;;;;;;2086433;28;20116;-69
2022/04/30 08:18:21;;;;;;;6.82;0.70;;;;;;;;;;2080835;28;20026;-68
2022/04/30 08:19:39;;;;;;;0.50;0.50;;;;;;;;;;2083358;28;20464;-68